EXS60P LGRP-EGNX
Flight info
| Callsign | EXS60P |
|---|---|
| Flight time | N/A |
| Altitude | 36000 |
| Route | VANES M601 ETERU UM601 UVRIT DCT AKORO DCT KUGGI DCT XANIS DCT TUMBO DCT OVVER DCT RODON DCT VAKSU DCT SPL DCT ZDA DCT MONFA DCT SOTOV DCT KPT DCT VEKIR DCT ADENU L608 LIRSU DCT ARCKY DCT BUB DCT DENUT L610 HEMEL |
| Aircraft | B738/M-SDE2E3FGHIRWXY/LB1 |
Departure
| Time | 2026-04-27 15:45 |
|---|---|
| Airport | Rhodes International Airport "Diagoras" (LGRP) |
Arrival
| Time | N/A |
|---|---|
| Airport | East Midlands Airport (EGNX) |
| Time | Latitude | Longitude | Altitude | Speed | Heading |
|---|---|---|---|---|---|
| 2026-04-27 15:18 | 36.40325 | 28.08980 | 27 ft | 0 kts | 160° |
| 2026-04-27 15:31 | 36.40336 | 28.08975 | 27 ft | 4 kts | 158° |
| 2026-04-27 15:32 | 36.40361 | 28.08961 | 27 ft | 4 kts | 149° |
| 2026-04-27 15:32 | 36.40383 | 28.08942 | 27 ft | 4 kts | 133° |
| 2026-04-27 15:32 | 36.40396 | 28.08916 | 27 ft | 3 kts | 92° |
| 2026-04-27 15:32 | 36.40396 | 28.08912 | 27 ft | 3 kts | 89° |
| 2026-04-27 15:40 | 36.40396 | 28.08918 | 27 ft | 3 kts | 89° |
| 2026-04-27 15:40 | 36.40397 | 28.08968 | 27 ft | 7 kts | 87° |
| 2026-04-27 15:40 | 36.40406 | 28.09026 | 27 ft | 7 kts | 71° |
| 2026-04-27 15:40 | 36.40428 | 28.09105 | 27 ft | 13 kts | 70° |
| 2026-04-27 15:41 | 36.40462 | 28.09217 | 27 ft | 14 kts | 70° |
| 2026-04-27 15:41 | 36.40496 | 28.09324 | 27 ft | 13 kts | 59° |
| 2026-04-27 15:41 | 36.40565 | 28.09395 | 27 ft | 13 kts | 40° |
| 2026-04-27 15:41 | 36.40610 | 28.09486 | 27 ft | 12 kts | 71° |
| 2026-04-27 15:42 | 36.40638 | 28.09587 | 27 ft | 12 kts | 70° |
| 2026-04-27 15:42 | 36.40669 | 28.09691 | 27 ft | 14 kts | 69° |
| 2026-04-27 15:42 | 36.40707 | 28.09821 | 27 ft | 18 kts | 70° |
| 2026-04-27 15:42 | 36.40755 | 28.09982 | 27 ft | 22 kts | 70° |
| 2026-04-27 15:43 | 36.40807 | 28.10159 | 27 ft | 22 kts | 70° |
| 2026-04-27 15:43 | 36.40857 | 28.10332 | 27 ft | 21 kts | 70° |
| 2026-04-27 15:43 | 36.40933 | 28.10435 | 27 ft | 16 kts | 347° |
| 2026-04-27 15:43 | 36.41004 | 28.10341 | 28 ft | 15 kts | 290° |
| 2026-04-27 15:44 | 36.41005 | 28.10211 | 26 ft | 18 kts | 250° |
| 2026-04-27 15:44 | 36.40903 | 28.09865 | 26 ft | 76 kts | 250° |
| 2026-04-27 15:44 | 36.40648 | 28.08991 | 28 ft | 135 kts | 250° |
| 2026-04-27 15:44 | 36.40277 | 28.07738 | 206 ft | 169 kts | 250° |
| 2026-04-27 15:45 | 36.39886 | 28.06379 | 1002 ft | 166 kts | 256° |
| 2026-04-27 15:45 | 36.39721 | 28.04956 | 1694 ft | 169 kts | 270° |
| 2026-04-27 15:45 | 36.39649 | 28.03480 | 2348 ft | 176 kts | 270° |
| 2026-04-27 15:45 | 36.39561 | 28.01944 | 3001 ft | 180 kts | 269° |
| 2026-04-27 15:46 | 36.39456 | 28.00314 | 3460 ft | 200 kts | 268° |
| 2026-04-27 15:46 | 36.39323 | 27.98551 | 3959 ft | 210 kts | 266° |
| 2026-04-27 15:46 | 36.39173 | 27.96699 | 4394 ft | 221 kts | 266° |
| 2026-04-27 15:46 | 36.39016 | 27.94750 | 4852 ft | 234 kts | 264° |
| 2026-04-27 15:47 | 36.38790 | 27.92700 | 5374 ft | 244 kts | 265° |
| 2026-04-27 15:47 | 36.38644 | 27.90590 | 6047 ft | 251 kts | 266° |
| 2026-04-27 15:47 | 36.38496 | 27.88319 | 6315 ft | 275 kts | 266° |
| 2026-04-27 15:47 | 36.38336 | 27.85917 | 6948 ft | 282 kts | 267° |
| 2026-04-27 15:48 | 36.38320 | 27.83483 | 7768 ft | 281 kts | 272° |
| 2026-04-27 15:48 | 36.38377 | 27.81055 | 8580 ft | 283 kts | 272° |
| 2026-04-27 15:48 | 36.38427 | 27.78600 | 9314 ft | 287 kts | 271° |
| 2026-04-27 15:49 | 36.38496 | 27.73550 | 10460 ft | 306 kts | 272° |
| 2026-04-27 15:49 | 36.38858 | 27.70861 | 10610 ft | 328 kts | 290° |
| 2026-04-27 15:49 | 36.39763 | 27.68183 | 10935 ft | 343 kts | 295° |
| 2026-04-27 15:49 | 36.40768 | 27.65458 | 11525 ft | 349 kts | 295° |
| 2026-04-27 15:50 | 36.41782 | 27.62732 | 12351 ft | 348 kts | 295° |
| 2026-04-27 15:50 | 36.42792 | 27.59990 | 13046 ft | 351 kts | 295° |
| 2026-04-27 15:50 | 36.43803 | 27.57210 | 13670 ft | 356 kts | 295° |
| 2026-04-27 15:50 | 36.44819 | 27.54384 | 14285 ft | 359 kts | 295° |
| 2026-04-27 15:51 | 36.45833 | 27.51535 | 14932 ft | 362 kts | 294° |
| 2026-04-27 15:51 | 36.46848 | 27.48666 | 15558 ft | 364 kts | 294° |
| 2026-04-27 15:51 | 36.47868 | 27.45769 | 16164 ft | 367 kts | 294° |
| 2026-04-27 15:51 | 36.48892 | 27.42852 | 16792 ft | 370 kts | 294° |
| 2026-04-27 15:52 | 36.49922 | 27.39913 | 17374 ft | 373 kts | 294° |
| 2026-04-27 15:52 | 36.50964 | 27.36933 | 17890 ft | 378 kts | 295° |
| 2026-04-27 15:52 | 36.52012 | 27.33933 | 17954 ft | 379 kts | 295° |
| 2026-04-27 15:52 | 36.53057 | 27.30934 | 17979 ft | 378 kts | 294° |
| 2026-04-27 15:53 | 36.54101 | 27.27937 | 17984 ft | 378 kts | 294° |
| 2026-04-27 15:53 | 36.55145 | 27.24940 | 17985 ft | 378 kts | 294° |
| 2026-04-27 15:53 | 36.56188 | 27.21938 | 17987 ft | 378 kts | 294° |
| 2026-04-27 15:53 | 36.57232 | 27.18935 | 17985 ft | 378 kts | 294° |
| 2026-04-27 15:54 | 36.58283 | 27.15905 | 18176 ft | 384 kts | 294° |
| 2026-04-27 15:54 | 36.59340 | 27.12860 | 18801 ft | 383 kts | 294° |
| 2026-04-27 15:54 | 36.60391 | 27.09823 | 19435 ft | 382 kts | 294° |
| 2026-04-27 15:54 | 36.61446 | 27.06773 | 19943 ft | 385 kts | 294° |
| 2026-04-27 15:55 | 36.62496 | 27.03736 | 20423 ft | 389 kts | 294° |
| 2026-04-27 15:55 | 36.63219 | 27.01642 | 20759 ft | 390 kts | 294° |
| 2026-04-27 15:55 | 36.64644 | 26.97515 | 21416 ft | 394 kts | 294° |
| 2026-04-27 15:55 | 36.65727 | 26.94370 | 21900 ft | 396 kts | 294° |
| 2026-04-27 15:56 | 36.66817 | 26.91205 | 22374 ft | 399 kts | 294° |
| 2026-04-27 15:56 | 36.67913 | 26.88018 | 22842 ft | 402 kts | 294° |
| 2026-04-27 15:56 | 36.69016 | 26.84808 | 23309 ft | 404 kts | 294° |
| 2026-04-27 15:56 | 36.70123 | 26.81582 | 23773 ft | 405 kts | 294° |
| 2026-04-27 15:57 | 36.71232 | 26.78345 | 24165 ft | 408 kts | 293° |
| 2026-04-27 15:57 | 36.72349 | 26.75082 | 24501 ft | 411 kts | 293° |
| 2026-04-27 15:57 | 36.73473 | 26.71798 | 24851 ft | 414 kts | 293° |
| 2026-04-27 15:57 | 36.74600 | 26.68498 | 25254 ft | 415 kts | 293° |
| 2026-04-27 15:58 | 36.75733 | 26.65179 | 25640 ft | 416 kts | 293° |
| 2026-04-27 15:58 | 36.76868 | 26.61850 | 25961 ft | 419 kts | 293° |
| 2026-04-27 15:58 | 36.78011 | 26.58493 | 26343 ft | 420 kts | 293° |
| 2026-04-27 15:58 | 36.79153 | 26.55135 | 26719 ft | 422 kts | 293° |
| 2026-04-27 15:59 | 36.80305 | 26.51744 | 26933 ft | 427 kts | 293° |
| 2026-04-27 15:59 | 36.81466 | 26.48324 | 27254 ft | 429 kts | 293° |
| 2026-04-27 15:59 | 36.82630 | 26.44890 | 27587 ft | 431 kts | 293° |
| 2026-04-27 15:59 | 36.83799 | 26.41437 | 27877 ft | 433 kts | 293° |
| 2026-04-27 16:00 | 36.84971 | 26.37971 | 28220 ft | 434 kts | 293° |
| 2026-04-27 16:00 | 36.85749 | 26.35669 | 28446 ft | 435 kts | 293° |
| 2026-04-27 16:00 | 36.87325 | 26.30998 | 28830 ft | 438 kts | 293° |
| 2026-04-27 16:00 | 36.88509 | 26.27485 | 29138 ft | 439 kts | 293° |
| 2026-04-27 16:01 | 36.89692 | 26.23971 | 29562 ft | 438 kts | 293° |
| 2026-04-27 16:01 | 36.90867 | 26.20476 | 30066 ft | 435 kts | 293° |
| 2026-04-27 16:01 | 36.92036 | 26.16996 | 30415 ft | 434 kts | 293° |
| 2026-04-27 16:01 | 36.93204 | 26.13514 | 30687 ft | 435 kts | 293° |
| 2026-04-27 16:02 | 36.94360 | 26.10062 | 30920 ft | 437 kts | 293° |
| 2026-04-27 16:02 | 36.95541 | 26.06533 | 31373 ft | 432 kts | 293° |
| 2026-04-27 16:02 | 36.96695 | 26.03081 | 31806 ft | 429 kts | 293° |
| 2026-04-27 16:02 | 36.97845 | 25.99635 | 32059 ft | 430 kts | 293° |
| 2026-04-27 16:03 | 36.98981 | 25.96230 | 32343 ft | 430 kts | 293° |
| 2026-04-27 16:03 | 37.00128 | 25.92786 | 32655 ft | 429 kts | 293° |
| 2026-04-27 16:03 | 37.01273 | 25.89343 | 32945 ft | 428 kts | 292° |
| 2026-04-27 16:03 | 37.02415 | 25.85906 | 33261 ft | 427 kts | 292° |
| 2026-04-27 16:04 | 37.03553 | 25.82478 | 33577 ft | 426 kts | 292° |
| 2026-04-27 16:04 | 37.04686 | 25.79059 | 33905 ft | 425 kts | 292° |
| 2026-04-27 16:04 | 37.05816 | 25.75648 | 34178 ft | 424 kts | 292° |
| 2026-04-27 16:04 | 37.06944 | 25.72238 | 34415 ft | 423 kts | 292° |
| 2026-04-27 16:05 | 37.08071 | 25.68828 | 34648 ft | 423 kts | 292° |
| 2026-04-27 16:05 | 37.09191 | 25.65432 | 34895 ft | 422 kts | 292° |
| 2026-04-27 16:05 | 37.10308 | 25.62043 | 35127 ft | 421 kts | 292° |
| 2026-04-27 16:05 | 37.11426 | 25.58648 | 35326 ft | 421 kts | 292° |
| 2026-04-27 16:06 | 37.12538 | 25.55266 | 35564 ft | 420 kts | 292° |
| 2026-04-27 16:06 | 37.13650 | 25.51881 | 35776 ft | 419 kts | 292° |
| 2026-04-27 16:06 | 37.14758 | 25.48503 | 35982 ft | 419 kts | 292° |